Universal City, California
Current Conditions -  °F | °C
As of 7:53 AM on Thursday 27 Nov 2014 (Local Time) from KBUR Reporting Station
Clear Clear  
Wind Chill: 61°   Ceiling: Unl
Heat Index: 61°   Visibility: 10mi
Dew Point: 22°   Wind: 0mph
Humidity: 22%   Direction: NA
Pressure: 30.13"   Gusts: NA
Location:  34.13°N, 118.35°W
Report Text: KBUR 271553Z 00000KT 10SM CLR 16/M06 A3013 RMK AO2 SLP192 T01611056
Loading
Personal Weather Stations






























Interactive Weather Map New forecast layout! Learn more

10-Day Weather Forecast

Advertisements
Track Severe Weather on mobile